sensor_id;sensor_type;location;lat;lon;timestamp;temperature;humidity
16863;DHT22;52193;48.216;-1.698;2023-03-11T00:01:44;10.60;99.90
16863;DHT22;52193;48.216;-1.698;2023-03-11T00:04:11;10.60;99.90
16863;DHT22;52193;48.216;-1.698;2023-03-11T00:06:38;10.60;99.90
16863;DHT22;52193;48.216;-1.698;2023-03-11T00:09:05;10.60;99.90
16863;DHT22;52193;48.216;-1.698;2023-03-11T00:11:32;10.70;99.90
16863;DHT22;52193;48.216;-1.698;2023-03-11T00:13:59;10.60;99.90
16863;DHT22;52193;48.216;-1.698;2023-03-11T00:16:27;10.60;99.90
16863;DHT22;52193;48.216;-1.698;2023-03-11T00:18:54;10.60;99.90
16863;DHT22;52193;48.216;-1.698;2023-03-11T00:21:22;10.60;99.90
16863;DHT22;52193;48.216;-1.698;2023-03-11T00:23:49;10.60;99.90
16863;DHT22;52193;48.216;-1.698;2023-03-11T00:26:16;10.60;99.90
16863;DHT22;52193;48.216;-1.698;2023-03-11T00:28:43;10.60;99.90
16863;DHT22;52193;48.216;-1.698;2023-03-11T00:31:11;10.60;99.90
16863;DHT22;52193;48.216;-1.698;2023-03-11T00:33:40;10.60;99.90
16863;DHT22;52193;48.216;-1.698;2023-03-11T00:36:10;10.60;99.90
16863;DHT22;52193;48.216;-1.698;2023-03-11T00:38:38;10.60;99.90
16863;DHT22;52193;48.216;-1.698;2023-03-11T00:41:05;10.60;99.90
16863;DHT22;52193;48.216;-1.698;2023-03-11T00:43:31;10.60;99.90
16863;DHT22;52193;48.216;-1.698;2023-03-11T00:45:58;10.60;99.90
16863;DHT22;52193;48.216;-1.698;2023-03-11T00:48:25;10.70;99.90
16863;DHT22;52193;48.216;-1.698;2023-03-11T00:50:54;10.60;99.90
16863;DHT22;52193;48.216;-1.698;2023-03-11T00:53:20;10.60;99.90
16863;DHT22;52193;48.216;-1.698;2023-03-11T00:55:47;10.60;99.90
16863;DHT22;52193;48.216;-1.698;2023-03-11T00:58:14;10.60;99.90
16863;DHT22;52193;48.216;-1.698;2023-03-11T01:00:41;10.60;99.90
16863;DHT22;52193;48.216;-1.698;2023-03-11T01:03:08;10.70;99.90
16863;DHT22;52193;48.216;-1.698;2023-03-11T01:05:36;10.60;99.90
16863;DHT22;52193;48.216;-1.698;2023-03-11T01:08:04;10.60;99.90
16863;DHT22;52193;48.216;-1.698;2023-03-11T01:10:32;10.70;99.90
16863;DHT22;52193;48.216;-1.698;2023-03-11T01:12:59;10.60;99.90
16863;DHT22;52193;48.216;-1.698;2023-03-11T01:15:28;10.60;99.90
16863;DHT22;52193;48.216;-1.698;2023-03-11T01:17:55;10.70;99.90
16863;DHT22;52193;48.216;-1.698;2023-03-11T01:20:22;10.60;99.90
16863;DHT22;52193;48.216;-1.698;2023-03-11T01:22:49;10.60;99.90
16863;DHT22;52193;48.216;-1.698;2023-03-11T01:25:20;10.60;99.90
16863;DHT22;52193;48.216;-1.698;2023-03-11T01:27:48;10.60;99.90
16863;DHT22;52193;48.216;-1.698;2023-03-11T01:30:17;10.60;99.90
16863;DHT22;52193;48.216;-1.698;2023-03-11T01:32:44;10.60;99.90
16863;DHT22;52193;48.216;-1.698;2023-03-11T01:35:11;10.60;99.90
16863;DHT22;52193;48.216;-1.698;2023-03-11T01:37:38;10.60;99.90
16863;DHT22;52193;48.216;-1.698;2023-03-11T01:40:10;10.60;99.90
16863;DHT22;52193;48.216;-1.698;2023-03-11T01:42:39;10.60;99.90
16863;DHT22;52193;48.216;-1.698;2023-03-11T01:48:07;10.60;99.90
16863;DHT22;52193;48.216;-1.698;2023-03-11T01:50:37;10.60;99.90
16863;DHT22;52193;48.216;-1.698;2023-03-11T01:53:06;10.70;99.90
16863;DHT22;52193;48.216;-1.698;2023-03-11T01:55:34;10.60;99.90
16863;DHT22;52193;48.216;-1.698;2023-03-11T01:58:06;10.60;99.90
16863;DHT22;52193;48.216;-1.698;2023-03-11T02:00:35;10.60;99.90
16863;DHT22;52193;48.216;-1.698;2023-03-11T02:03:07;10.60;99.90
16863;DHT22;52193;48.216;-1.698;2023-03-11T02:05:35;10.60;99.90
16863;DHT22;52193;48.216;-1.698;2023-03-11T02:08:03;10.60;99.90
16863;DHT22;52193;48.216;-1.698;2023-03-11T02:10:30;10.60;99.90
16863;DHT22;52193;48.216;-1.698;2023-03-11T02:12:57;10.60;99.90
16863;DHT22;52193;48.216;-1.698;2023-03-11T02:15:26;10.60;99.90
16863;DHT22;52193;48.216;-1.698;2023-03-11T02:17:54;10.60;99.90
16863;DHT22;52193;48.216;-1.698;2023-03-11T02:20:29;10.60;99.90
16863;DHT22;52193;48.216;-1.698;2023-03-11T02:23:00;10.60;99.90
16863;DHT22;52193;48.216;-1.698;2023-03-11T02:25:33;10.60;99.90
16863;DHT22;52193;48.216;-1.698;2023-03-11T02:28:04;10.60;99.90
16863;DHT22;52193;48.216;-1.698;2023-03-11T02:30:34;10.60;99.90
16863;DHT22;52193;48.216;-1.698;2023-03-11T02:33:01;10.60;99.90
16863;DHT22;52193;48.216;-1.698;2023-03-11T02:35:29;10.60;99.90
16863;DHT22;52193;48.216;-1.698;2023-03-11T02:37:56;10.60;99.90
16863;DHT22;52193;48.216;-1.698;2023-03-11T02:40:40;10.60;99.90
16863;DHT22;52193;48.216;-1.698;2023-03-11T02:43:13;10.60;99.90
16863;DHT22;52193;48.216;-1.698;2023-03-11T02:45:42;10.60;99.90
16863;DHT22;52193;48.216;-1.698;2023-03-11T02:48:10;10.50;99.90
16863;DHT22;52193;48.216;-1.698;2023-03-11T02:50:39;10.40;99.90
16863;DHT22;52193;48.216;-1.698;2023-03-11T02:53:06;10.50;99.90
16863;DHT22;52193;48.216;-1.698;2023-03-11T02:55:34;10.50;99.90
16863;DHT22;52193;48.216;-1.698;2023-03-11T02:58:01;10.50;99.90
16863;DHT22;52193;48.216;-1.698;2023-03-11T03:00:29;10.50;99.90
16863;DHT22;52193;48.216;-1.698;2023-03-11T03:02:56;10.50;99.90
16863;DHT22;52193;48.216;-1.698;2023-03-11T03:05:23;10.50;99.90
16863;DHT22;52193;48.216;-1.698;2023-03-11T03:07:50;10.50;99.90
16863;DHT22;52193;48.216;-1.698;2023-03-11T03:10:19;10.50;99.90
16863;DHT22;52193;48.216;-1.698;2023-03-11T03:12:46;10.50;99.90
16863;DHT22;52193;48.216;-1.698;2023-03-11T03:15:13;10.60;99.90
16863;DHT22;52193;48.216;-1.698;2023-03-11T03:17:43;10.50;99.90
16863;DHT22;52193;48.216;-1.698;2023-03-11T03:20:12;10.60;99.90
16863;DHT22;52193;48.216;-1.698;2023-03-11T03:22:40;10.60;99.90
16863;DHT22;52193;48.216;-1.698;2023-03-11T03:25:08;10.60;99.90
16863;DHT22;52193;48.216;-1.698;2023-03-11T03:27:36;10.60;99.90
16863;DHT22;52193;48.216;-1.698;2023-03-11T03:30:04;10.60;99.90
16863;DHT22;52193;48.216;-1.698;2023-03-11T03:32:31;10.60;99.90
16863;DHT22;52193;48.216;-1.698;2023-03-11T03:34:59;10.60;99.90
16863;DHT22;52193;48.216;-1.698;2023-03-11T03:37:27;10.60;99.90
16863;DHT22;52193;48.216;-1.698;2023-03-11T03:39:54;10.50;99.90
16863;DHT22;52193;48.216;-1.698;2023-03-11T03:42:21;10.50;99.90
16863;DHT22;52193;48.216;-1.698;2023-03-11T03:44:50;10.50;99.90
16863;DHT22;52193;48.216;-1.698;2023-03-11T03:47:17;10.50;99.90
16863;DHT22;52193;48.216;-1.698;2023-03-11T03:49:44;10.50;99.90
16863;DHT22;52193;48.216;-1.698;2023-03-11T03:52:12;10.60;99.90
16863;DHT22;52193;48.216;-1.698;2023-03-11T03:54:39;10.60;99.90
16863;DHT22;52193;48.216;-1.698;2023-03-11T03:57:06;10.60;99.90
16863;DHT22;52193;48.216;-1.698;2023-03-11T03:59:33;10.60;99.90
16863;DHT22;52193;48.216;-1.698;2023-03-11T04:02:00;10.60;99.90
16863;DHT22;52193;48.216;-1.698;2023-03-11T04:04:27;10.60;99.90
16863;DHT22;52193;48.216;-1.698;2023-03-11T04:06:54;10.60;99.90
16863;DHT22;52193;48.216;-1.698;2023-03-11T04:09:22;10.60;99.90
16863;DHT22;52193;48.216;-1.698;2023-03-11T04:11:49;10.60;99.90
16863;DHT22;52193;48.216;-1.698;2023-03-11T04:14:16;10.60;99.90
16863;DHT22;52193;48.216;-1.698;2023-03-11T04:16:43;10.60;99.90
16863;DHT22;52193;48.216;-1.698;2023-03-11T04:19:11;10.60;99.90
16863;DHT22;52193;48.216;-1.698;2023-03-11T04:21:37;10.60;99.90
16863;DHT22;52193;48.216;-1.698;2023-03-11T04:24:05;10.60;99.90
16863;DHT22;52193;48.216;-1.698;2023-03-11T04:26:33;10.60;99.90
16863;DHT22;52193;48.216;-1.698;2023-03-11T04:29:00;10.60;99.90
16863;DHT22;52193;48.216;-1.698;2023-03-11T04:31:27;10.60;99.90
16863;DHT22;52193;48.216;-1.698;2023-03-11T04:33:54;10.60;99.90
16863;DHT22;52193;48.216;-1.698;2023-03-11T04:36:21;10.60;99.90
16863;DHT22;52193;48.216;-1.698;2023-03-11T04:38:48;10.60;99.90
16863;DHT22;52193;48.216;-1.698;2023-03-11T04:41:15;10.60;99.90
16863;DHT22;52193;48.216;-1.698;2023-03-11T04:43:43;10.60;99.90
16863;DHT22;52193;48.216;-1.698;2023-03-11T04:46:10;10.60;99.90
16863;DHT22;52193;48.216;-1.698;2023-03-11T04:48:37;10.60;99.90
16863;DHT22;52193;48.216;-1.698;2023-03-11T04:51:04;10.60;99.90
16863;DHT22;52193;48.216;-1.698;2023-03-11T04:53:32;10.60;99.90
16863;DHT22;52193;48.216;-1.698;2023-03-11T04:55:59;10.60;99.90
16863;DHT22;52193;48.216;-1.698;2023-03-11T04:58:26;10.60;99.90
16863;DHT22;52193;48.216;-1.698;2023-03-11T05:00:54;10.60;99.90
16863;DHT22;52193;48.216;-1.698;2023-03-11T05:03:21;10.60;99.90
16863;DHT22;52193;48.216;-1.698;2023-03-11T05:05:48;10.60;99.90
16863;DHT22;52193;48.216;-1.698;2023-03-11T05:08:17;10.60;99.90
16863;DHT22;52193;48.216;-1.698;2023-03-11T05:10:44;10.60;99.90
16863;DHT22;52193;48.216;-1.698;2023-03-11T05:13:11;10.60;99.90
16863;DHT22;52193;48.216;-1.698;2023-03-11T05:15:38;10.70;99.90
16863;DHT22;52193;48.216;-1.698;2023-03-11T05:18:07;10.60;99.90
16863;DHT22;52193;48.216;-1.698;2023-03-11T05:20:34;10.60;99.90
16863;DHT22;52193;48.216;-1.698;2023-03-11T05:23:01;10.60;99.90
16863;DHT22;52193;48.216;-1.698;2023-03-11T05:25:28;10.70;99.90
16863;DHT22;52193;48.216;-1.698;2023-03-11T05:27:55;10.70;99.90
16863;DHT22;52193;48.216;-1.698;2023-03-11T05:30:22;10.70;99.90
16863;DHT22;52193;48.216;-1.698;2023-03-11T05:32:49;10.60;99.90
16863;DHT22;52193;48.216;-1.698;2023-03-11T05:35:17;10.60;99.90
16863;DHT22;52193;48.216;-1.698;2023-03-11T05:37:45;10.60;99.90
16863;DHT22;52193;48.216;-1.698;2023-03-11T05:40:15;10.60;99.90
16863;DHT22;52193;48.216;-1.698;2023-03-11T05:42:42;10.60;99.90
16863;DHT22;52193;48.216;-1.698;2023-03-11T05:45:09;10.60;99.90
16863;DHT22;52193;48.216;-1.698;2023-03-11T05:47:36;10.60;99.90
16863;DHT22;52193;48.216;-1.698;2023-03-11T05:50:05;10.60;99.90
16863;DHT22;52193;48.216;-1.698;2023-03-11T05:52:33;10.60;99.90
16863;DHT22;52193;48.216;-1.698;2023-03-11T05:55:00;10.60;99.90
16863;DHT22;52193;48.216;-1.698;2023-03-11T05:57:27;10.70;99.90
16863;DHT22;52193;48.216;-1.698;2023-03-11T05:59:54;10.70;99.90
16863;DHT22;52193;48.216;-1.698;2023-03-11T06:02:21;10.70;99.90
16863;DHT22;52193;48.216;-1.698;2023-03-11T06:04:48;10.70;99.90
16863;DHT22;52193;48.216;-1.698;2023-03-11T06:07:15;10.70;99.90
16863;DHT22;52193;48.216;-1.698;2023-03-11T06:09:43;10.60;99.90
16863;DHT22;52193;48.216;-1.698;2023-03-11T06:12:10;10.60;99.90
16863;DHT22;52193;48.216;-1.698;2023-03-11T06:14:37;10.60;99.90
16863;DHT22;52193;48.216;-1.698;2023-03-11T06:17:04;10.70;99.90
16863;DHT22;52193;48.216;-1.698;2023-03-11T06:19:31;10.70;99.90
16863;DHT22;52193;48.216;-1.698;2023-03-11T06:21:58;10.70;99.90
16863;DHT22;52193;48.216;-1.698;2023-03-11T06:24:25;10.60;99.90
16863;DHT22;52193;48.216;-1.698;2023-03-11T06:26:53;10.70;99.90
16863;DHT22;52193;48.216;-1.698;2023-03-11T06:29:20;10.60;99.90
16863;DHT22;52193;48.216;-1.698;2023-03-11T06:31:49;10.60;99.90
16863;DHT22;52193;48.216;-1.698;2023-03-11T06:34:16;10.70;99.90
16863;DHT22;52193;48.216;-1.698;2023-03-11T06:36:43;10.60;99.90
16863;DHT22;52193;48.216;-1.698;2023-03-11T06:39:12;10.60;99.90
16863;DHT22;52193;48.216;-1.698;2023-03-11T06:41:39;10.60;99.90
16863;DHT22;52193;48.216;-1.698;2023-03-11T06:44:08;10.60;99.90
16863;DHT22;52193;48.216;-1.698;2023-03-11T06:46:35;10.70;99.90
16863;DHT22;52193;48.216;-1.698;2023-03-11T06:49:02;10.70;99.90
16863;DHT22;52193;48.216;-1.698;2023-03-11T06:51:29;10.70;99.90
16863;DHT22;52193;48.216;-1.698;2023-03-11T06:53:56;10.70;99.90
16863;DHT22;52193;48.216;-1.698;2023-03-11T06:56:23;10.70;99.90
16863;DHT22;52193;48.216;-1.698;2023-03-11T06:58:50;10.70;99.90
16863;DHT22;52193;48.216;-1.698;2023-03-11T07:01:21;10.80;99.90
16863;DHT22;52193;48.216;-1.698;2023-03-11T07:03:49;10.70;99.90
16863;DHT22;52193;48.216;-1.698;2023-03-11T07:06:20;10.70;99.90
16863;DHT22;52193;48.216;-1.698;2023-03-11T07:08:48;10.80;99.90
16863;DHT22;52193;48.216;-1.698;2023-03-11T07:11:18;10.80;99.90
16863;DHT22;52193;48.216;-1.698;2023-03-11T07:13:45;10.70;99.90
16863;DHT22;52193;48.216;-1.698;2023-03-11T07:16:14;10.70;99.90
16863;DHT22;52193;48.216;-1.698;2023-03-11T07:18:44;10.80;99.90
16863;DHT22;52193;48.216;-1.698;2023-03-11T07:21:13;10.80;99.90
16863;DHT22;52193;48.216;-1.698;2023-03-11T07:23:41;10.70;99.90
16863;DHT22;52193;48.216;-1.698;2023-03-11T07:26:08;10.80;99.90
16863;DHT22;52193;48.216;-1.698;2023-03-11T07:28:36;10.80;99.90
16863;DHT22;52193;48.216;-1.698;2023-03-11T07:31:07;10.80;99.90
16863;DHT22;52193;48.216;-1.698;2023-03-11T07:33:34;10.80;99.90
16863;DHT22;52193;48.216;-1.698;2023-03-11T07:36:06;10.80;99.90
16863;DHT22;52193;48.216;-1.698;2023-03-11T07:38:33;10.80;99.90
16863;DHT22;52193;48.216;-1.698;2023-03-11T07:41:01;10.80;99.90
16863;DHT22;52193;48.216;-1.698;2023-03-11T07:43:28;10.80;99.90
16863;DHT22;52193;48.216;-1.698;2023-03-11T07:46:02;10.90;99.90
16863;DHT22;52193;48.216;-1.698;2023-03-11T07:48:29;10.90;99.90
16863;DHT22;52193;48.216;-1.698;2023-03-11T07:51:00;10.90;99.90
16863;DHT22;52193;48.216;-1.698;2023-03-11T07:53:29;10.90;99.90
16863;DHT22;52193;48.216;-1.698;2023-03-11T07:55:56;10.90;99.90
16863;DHT22;52193;48.216;-1.698;2023-03-11T07:58:24;10.90;99.90
16863;DHT22;52193;48.216;-1.698;2023-03-11T08:00:51;10.90;99.90
16863;DHT22;52193;48.216;-1.698;2023-03-11T08:03:19;11.00;99.90
16863;DHT22;52193;48.216;-1.698;2023-03-11T08:05:46;11.00;99.90
16863;DHT22;52193;48.216;-1.698;2023-03-11T08:08:13;11.00;99.90
16863;DHT22;52193;48.216;-1.698;2023-03-11T08:10:41;11.00;99.90
16863;DHT22;52193;48.216;-1.698;2023-03-11T08:13:08;11.00;99.90
16863;DHT22;52193;48.216;-1.698;2023-03-11T08:15:35;11.00;99.90
16863;DHT22;52193;48.216;-1.698;2023-03-11T08:18:03;11.00;99.90
16863;DHT22;52193;48.216;-1.698;2023-03-11T08:20:30;11.10;99.90
16863;DHT22;52193;48.216;-1.698;2023-03-11T08:22:57;11.10;99.90
16863;DHT22;52193;48.216;-1.698;2023-03-11T08:25:25;11.10;99.90
16863;DHT22;52193;48.216;-1.698;2023-03-11T08:27:53;11.20;99.90
16863;DHT22;52193;48.216;-1.698;2023-03-11T08:30:20;11.10;99.90
16863;DHT22;52193;48.216;-1.698;2023-03-11T08:32:47;11.20;99.90
16863;DHT22;52193;48.216;-1.698;2023-03-11T08:35:15;11.20;99.90
16863;DHT22;52193;48.216;-1.698;2023-03-11T08:37:42;11.20;99.90
16863;DHT22;52193;48.216;-1.698;2023-03-11T08:40:10;11.30;99.90
16863;DHT22;52193;48.216;-1.698;2023-03-11T08:42:37;11.30;99.90
16863;DHT22;52193;48.216;-1.698;2023-03-11T08:45:07;11.40;99.90
16863;DHT22;52193;48.216;-1.698;2023-03-11T08:47:35;11.40;99.90
16863;DHT22;52193;48.216;-1.698;2023-03-11T08:50:02;11.40;99.90
16863;DHT22;52193;48.216;-1.698;2023-03-11T08:52:29;11.40;99.90
16863;DHT22;52193;48.216;-1.698;2023-03-11T08:54:56;11.50;99.90
16863;DHT22;52193;48.216;-1.698;2023-03-11T08:57:23;11.50;99.90
16863;DHT22;52193;48.216;-1.698;2023-03-11T08:59:50;11.50;99.90
16863;DHT22;52193;48.216;-1.698;2023-03-11T09:02:18;11.50;99.90
16863;DHT22;52193;48.216;-1.698;2023-03-11T09:04:45;11.60;99.90
16863;DHT22;52193;48.216;-1.698;2023-03-11T09:07:13;11.60;99.90
16863;DHT22;52193;48.216;-1.698;2023-03-11T09:09:40;11.60;99.90
16863;DHT22;52193;48.216;-1.698;2023-03-11T09:12:07;11.70;99.90
16863;DHT22;52193;48.216;-1.698;2023-03-11T09:14:38;11.70;99.90
16863;DHT22;52193;48.216;-1.698;2023-03-11T09:17:05;11.80;99.90
16863;DHT22;52193;48.216;-1.698;2023-03-11T09:19:34;11.90;99.90
16863;DHT22;52193;48.216;-1.698;2023-03-11T09:22:01;11.80;99.90
16863;DHT22;52193;48.216;-1.698;2023-03-11T09:24:31;11.80;99.90
16863;DHT22;52193;48.216;-1.698;2023-03-11T09:26:58;11.90;99.90
16863;DHT22;52193;48.216;-1.698;2023-03-11T09:29:25;11.90;99.90
16863;DHT22;52193;48.216;-1.698;2023-03-11T09:31:52;11.90;99.90
16863;DHT22;52193;48.216;-1.698;2023-03-11T09:34:19;12.00;99.90
16863;DHT22;52193;48.216;-1.698;2023-03-11T09:36:47;11.90;99.90
16863;DHT22;52193;48.216;-1.698;2023-03-11T09:39:14;12.00;99.90
16863;DHT22;52193;48.216;-1.698;2023-03-11T09:41:47;11.90;99.90
16863;DHT22;52193;48.216;-1.698;2023-03-11T09:44:20;12.00;99.90
16863;DHT22;52193;48.216;-1.698;2023-03-11T09:47:27;12.00;99.90
16863;DHT22;52193;48.216;-1.698;2023-03-11T09:50:08;12.10;99.90
16863;DHT22;52193;48.216;-1.698;2023-03-11T09:52:44;12.20;99.90
16863;DHT22;52193;48.216;-1.698;2023-03-11T09:55:27;12.20;99.90
16863;DHT22;52193;48.216;-1.698;2023-03-11T09:57:59;12.20;99.90
16863;DHT22;52193;48.216;-1.698;2023-03-11T10:00:27;12.20;99.90
16863;DHT22;52193;48.216;-1.698;2023-03-11T10:02:54;12.20;99.90
16863;DHT22;52193;48.216;-1.698;2023-03-11T10:05:25;12.30;99.90
16863;DHT22;52193;48.216;-1.698;2023-03-11T10:07:58;12.30;99.90
16863;DHT22;52193;48.216;-1.698;2023-03-11T10:10:31;12.40;99.90
16863;DHT22;52193;48.216;-1.698;2023-03-11T10:13:05;12.50;99.90
16863;DHT22;52193;48.216;-1.698;2023-03-11T10:15:40;12.50;99.90
16863;DHT22;52193;48.216;-1.698;2023-03-11T10:21:36;12.60;99.90
16863;DHT22;52193;48.216;-1.698;2023-03-11T10:24:16;12.70;99.90
16863;DHT22;52193;48.216;-1.698;2023-03-11T10:26:48;12.80;99.90
16863;DHT22;52193;48.216;-1.698;2023-03-11T10:29:22;12.80;99.90
16863;DHT22;52193;48.216;-1.698;2023-03-11T10:31:55;12.90;99.90
16863;DHT22;52193;48.216;-1.698;2023-03-11T10:34:27;12.90;99.90
16863;DHT22;52193;48.216;-1.698;2023-03-11T10:37:00;12.90;99.90
16863;DHT22;52193;48.216;-1.698;2023-03-11T10:39:30;12.90;99.90
16863;DHT22;52193;48.216;-1.698;2023-03-11T10:42:00;12.90;99.90
16863;DHT22;52193;48.216;-1.698;2023-03-11T10:44:31;12.90;99.90
16863;DHT22;52193;48.216;-1.698;2023-03-11T10:46:59;12.90;99.90
16863;DHT22;52193;48.216;-1.698;2023-03-11T10:49:26;13.00;99.90
16863;DHT22;52193;48.216;-1.698;2023-03-11T10:51:54;13.10;99.90
16863;DHT22;52193;48.216;-1.698;2023-03-11T10:54:27;13.20;99.90
16863;DHT22;52193;48.216;-1.698;2023-03-11T10:56:57;13.10;99.90
16863;DHT22;52193;48.216;-1.698;2023-03-11T10:59:27;13.10;99.90
16863;DHT22;52193;48.216;-1.698;2023-03-11T11:01:56;13.10;99.90
16863;DHT22;52193;48.216;-1.698;2023-03-11T11:04:30;13.10;99.90
16863;DHT22;52193;48.216;-1.698;2023-03-11T11:07:20;13.20;99.90
16863;DHT22;52193;48.216;-1.698;2023-03-11T11:09:49;13.30;99.90
16863;DHT22;52193;48.216;-1.698;2023-03-11T11:12:37;13.30;99.90
16863;DHT22;52193;48.216;-1.698;2023-03-11T11:15:20;13.40;99.90
16863;DHT22;52193;48.216;-1.698;2023-03-11T11:17:47;13.40;99.90
16863;DHT22;52193;48.216;-1.698;2023-03-11T11:20:18;13.50;99.90
16863;DHT22;52193;48.216;-1.698;2023-03-11T11:22:51;13.50;99.90
16863;DHT22;52193;48.216;-1.698;2023-03-11T11:25:27;13.50;99.90
16863;DHT22;52193;48.216;-1.698;2023-03-11T11:27:57;13.50;99.90
16863;DHT22;52193;48.216;-1.698;2023-03-11T11:30:25;13.50;99.90
16863;DHT22;52193;48.216;-1.698;2023-03-11T11:32:52;13.50;99.90
16863;DHT22;52193;48.216;-1.698;2023-03-11T11:35:22;13.60;99.90
16863;DHT22;52193;48.216;-1.698;2023-03-11T11:37:51;13.60;99.90
16863;DHT22;52193;48.216;-1.698;2023-03-11T11:40:25;13.70;99.90
16863;DHT22;52193;48.216;-1.698;2023-03-11T11:42:56;13.70;99.90
16863;DHT22;52193;48.216;-1.698;2023-03-11T11:45:33;13.70;99.90
16863;DHT22;52193;48.216;-1.698;2023-03-11T11:48:06;13.70;99.90
16863;DHT22;52193;48.216;-1.698;2023-03-11T11:50:43;13.80;99.90
16863;DHT22;52193;48.216;-1.698;2023-03-11T11:53:20;13.80;99.90
16863;DHT22;52193;48.216;-1.698;2023-03-11T11:55:50;13.90;99.90
16863;DHT22;52193;48.216;-1.698;2023-03-11T11:58:20;13.80;99.90
16863;DHT22;52193;48.216;-1.698;2023-03-11T12:01:01;13.80;99.90
16863;DHT22;52193;48.216;-1.698;2023-03-11T12:06:24;13.80;99.90
16863;DHT22;52193;48.216;-1.698;2023-03-11T12:09:01;13.80;99.90
16863;DHT22;52193;48.216;-1.698;2023-03-11T12:11:34;13.90;99.90
16863;DHT22;52193;48.216;-1.698;2023-03-11T12:14:09;13.90;99.90
16863;DHT22;52193;48.216;-1.698;2023-03-11T12:16:41;13.90;99.90
16863;DHT22;52193;48.216;-1.698;2023-03-11T12:19:16;13.90;99.90
16863;DHT22;52193;48.216;-1.698;2023-03-11T12:22:10;13.80;99.90
16863;DHT22;52193;48.216;-1.698;2023-03-11T12:24:58;13.80;99.90
16863;DHT22;52193;48.216;-1.698;2023-03-11T12:27:28;13.80;99.90
16863;DHT22;52193;48.216;-1.698;2023-03-11T12:30:02;13.90;99.90
16863;DHT22;52193;48.216;-1.698;2023-03-11T12:32:33;13.90;99.90
16863;DHT22;52193;48.216;-1.698;2023-03-11T12:35:03;13.90;99.90
16863;DHT22;52193;48.216;-1.698;2023-03-11T12:37:35;13.90;99.90
16863;DHT22;52193;48.216;-1.698;2023-03-11T12:43:24;14.10;99.90
16863;DHT22;52193;48.216;-1.698;2023-03-11T12:45:56;14.10;99.90
16863;DHT22;52193;48.216;-1.698;2023-03-11T12:48:34;14.20;99.90
16863;DHT22;52193;48.216;-1.698;2023-03-11T12:51:02;14.30;99.90
16863;DHT22;52193;48.216;-1.698;2023-03-11T12:53:45;14.30;99.90
16863;DHT22;52193;48.216;-1.698;2023-03-11T12:56:23;14.30;99.90
16863;DHT22;52193;48.216;-1.698;2023-03-11T12:59:15;14.40;99.90
16863;DHT22;52193;48.216;-1.698;2023-03-11T13:01:57;14.40;99.90
16863;DHT22;52193;48.216;-1.698;2023-03-11T13:04:35;14.40;99.90
16863;DHT22;52193;48.216;-1.698;2023-03-11T13:07:41;14.50;99.90
16863;DHT22;52193;48.216;-1.698;2023-03-11T13:10:37;14.60;99.90
16863;DHT22;52193;48.216;-1.698;2023-03-11T13:13:32;14.70;99.90
16863;DHT22;52193;48.216;-1.698;2023-03-11T13:16:34;14.70;99.90
16863;DHT22;52193;48.216;-1.698;2023-03-11T13:19:34;14.70;99.90
16863;DHT22;52193;48.216;-1.698;2023-03-11T13:22:04;14.90;99.90
16863;DHT22;52193;48.216;-1.698;2023-03-11T13:24:48;15.00;99.90
16863;DHT22;52193;48.216;-1.698;2023-03-11T13:27:31;15.00;99.90
16863;DHT22;52193;48.216;-1.698;2023-03-11T13:30:09;15.10;99.90
16863;DHT22;52193;48.216;-1.698;2023-03-11T13:32:59;15.20;99.90
16863;DHT22;52193;48.216;-1.698;2023-03-11T13:35:42;15.20;99.90
16863;DHT22;52193;48.216;-1.698;2023-03-11T13:38:23;15.30;99.90
16863;DHT22;52193;48.216;-1.698;2023-03-11T13:40:57;15.40;99.90
16863;DHT22;52193;48.216;-1.698;2023-03-11T13:43:24;15.40;99.90
16863;DHT22;52193;48.216;-1.698;2023-03-11T13:45:53;15.40;99.90
16863;DHT22;52193;48.216;-1.698;2023-03-11T13:48:27;15.50;99.90
16863;DHT22;52193;48.216;-1.698;2023-03-11T13:50:59;15.60;99.90
16863;DHT22;52193;48.216;-1.698;2023-03-11T13:53:30;15.70;99.90
16863;DHT22;52193;48.216;-1.698;2023-03-11T13:55:58;15.70;99.90
16863;DHT22;52193;48.216;-1.698;2023-03-11T13:58:26;15.90;99.90
16863;DHT22;52193;48.216;-1.698;2023-03-11T14:00:55;16.20;99.90
16863;DHT22;52193;48.216;-1.698;2023-03-11T14:03:23;16.70;99.90
16863;DHT22;52193;48.216;-1.698;2023-03-11T14:05:57;16.90;99.90
16863;DHT22;52193;48.216;-1.698;2023-03-11T14:08:28;17.10;99.90
16863;DHT22;52193;48.216;-1.698;2023-03-11T14:10:57;17.20;99.90
16863;DHT22;52193;48.216;-1.698;2023-03-11T14:13:26;17.10;99.90
16863;DHT22;52193;48.216;-1.698;2023-03-11T14:15:58;17.10;99.90
16863;DHT22;52193;48.216;-1.698;2023-03-11T14:18:33;17.10;99.90
16863;DHT22;52193;48.216;-1.698;2023-03-11T14:21:02;17.00;99.90
16863;DHT22;52193;48.216;-1.698;2023-03-11T14:23:33;17.00;99.90
16863;DHT22;52193;48.216;-1.698;2023-03-11T14:26:04;17.00;99.90
16863;DHT22;52193;48.216;-1.698;2023-03-11T14:28:35;16.90;99.90
16863;DHT22;52193;48.216;-1.698;2023-03-11T14:31:03;16.80;99.90
16863;DHT22;52193;48.216;-1.698;2023-03-11T14:33:31;16.80;99.90
16863;DHT22;52193;48.216;-1.698;2023-03-11T14:36:00;16.70;99.90
16863;DHT22;52193;48.216;-1.698;2023-03-11T14:38:30;16.70;99.90
16863;DHT22;52193;48.216;-1.698;2023-03-11T14:40:58;16.70;99.90
16863;DHT22;52193;48.216;-1.698;2023-03-11T14:43:27;16.60;99.90
16863;DHT22;52193;48.216;-1.698;2023-03-11T14:45:56;16.60;99.90
16863;DHT22;52193;48.216;-1.698;2023-03-11T14:48:27;16.60;99.90
16863;DHT22;52193;48.216;-1.698;2023-03-11T14:50:57;16.60;99.90
16863;DHT22;52193;48.216;-1.698;2023-03-11T14:53:26;16.60;99.90
16863;DHT22;52193;48.216;-1.698;2023-03-11T14:55:57;16.70;99.90
16863;DHT22;52193;48.216;-1.698;2023-03-11T14:58:29;16.80;99.90
16863;DHT22;52193;48.216;-1.698;2023-03-11T15:01:02;16.90;99.90
16863;DHT22;52193;48.216;-1.698;2023-03-11T15:03:32;17.40;99.90
16863;DHT22;52193;48.216;-1.698;2023-03-11T15:06:02;17.40;99.90
16863;DHT22;52193;48.216;-1.698;2023-03-11T15:08:33;17.50;99.90
16863;DHT22;52193;48.216;-1.698;2023-03-11T15:11:18;17.60;99.90
16863;DHT22;52193;48.216;-1.698;2023-03-11T15:13:46;17.80;99.90
16863;DHT22;52193;48.216;-1.698;2023-03-11T15:16:25;18.00;99.90
16863;DHT22;52193;48.216;-1.698;2023-03-11T15:18:54;18.40;99.90
16863;DHT22;52193;48.216;-1.698;2023-03-11T15:21:22;19.50;99.90
16863;DHT22;52193;48.216;-1.698;2023-03-11T15:23:51;20.20;99.90
16863;DHT22;52193;48.216;-1.698;2023-03-11T15:26:23;20.50;99.90
16863;DHT22;52193;48.216;-1.698;2023-03-11T15:28:56;20.10;99.90
16863;DHT22;52193;48.216;-1.698;2023-03-11T15:31:35;19.90;99.90
16863;DHT22;52193;48.216;-1.698;2023-03-11T15:34:10;19.80;99.90
16863;DHT22;52193;48.216;-1.698;2023-03-11T15:36:38;19.60;99.90
16863;DHT22;52193;48.216;-1.698;2023-03-11T15:39:12;19.50;99.90
16863;DHT22;52193;48.216;-1.698;2023-03-11T15:41:41;19.40;99.90
16863;DHT22;52193;48.216;-1.698;2023-03-11T15:44:23;19.30;99.90
16863;DHT22;52193;48.216;-1.698;2023-03-11T15:46:51;19.20;99.90